createdAt,value
2018-08-19T00:02:08.555Z,9.00
2018-08-19T00:04:38.358Z,8.80
2018-08-19T00:07:07.284Z,9.13
2018-08-19T00:09:36.133Z,9.53
2018-08-19T00:12:04.874Z,9.40
2018-08-19T00:14:35.229Z,10.00
2018-08-19T00:17:05.129Z,10.13
2018-08-19T00:19:35.349Z,10.43
2018-08-19T00:22:03.928Z,10.07
2018-08-19T00:24:32.507Z,10.33
2018-08-19T00:27:02.026Z,10.37
2018-08-19T00:29:37.402Z,10.77
2018-08-19T00:32:06.913Z,10.80
2018-08-19T00:34:38.783Z,9.97
2018-08-19T00:37:07.746Z,10.80
2018-08-19T00:39:36.288Z,10.87
2018-08-19T00:42:05.258Z,11.60
2018-08-19T00:44:34.349Z,11.53
2018-08-19T00:47:03.839Z,10.67
2018-08-19T00:49:32.697Z,11.00
2018-08-19T00:52:02.364Z,11.43
2018-08-19T00:54:31.980Z,11.60
2018-08-19T00:57:01.173Z,11.17
2018-08-19T00:59:31.077Z,11.80
2018-08-19T01:01:59.866Z,11.93
2018-08-19T01:04:28.721Z,11.40
2018-08-19T01:06:58.452Z,12.07
2018-08-19T01:09:30.297Z,12.70
2018-08-19T01:11:58.918Z,11.70
2018-08-19T01:14:27.508Z,12.23
2018-08-19T01:16:56.045Z,12.70
2018-08-19T01:19:24.682Z,12.30
2018-08-19T01:21:55.294Z,12.27
2018-08-19T01:24:23.952Z,12.83
2018-08-19T01:26:52.554Z,12.60
2018-08-19T01:29:37.308Z,12.80
2018-08-19T01:32:12.078Z,12.50
2018-08-19T01:34:44.266Z,12.87
2018-08-19T01:37:15.377Z,12.33
2018-08-19T01:39:43.940Z,12.80
2018-08-19T01:42:12.541Z,13.43
2018-08-19T01:44:42.716Z,13.67
2018-08-19T01:47:11.256Z,12.90
2018-08-19T01:49:39.829Z,13.20
2018-08-19T01:52:08.818Z,13.00
2018-08-19T01:54:37.388Z,13.33
2018-08-19T01:57:05.968Z,13.03
2018-08-19T01:59:35.523Z,13.53
2018-08-19T02:02:08.691Z,13.90
2018-08-19T02:04:46.218Z,13.77
2018-08-19T02:07:16.660Z,13.20
2018-08-19T02:09:58.684Z,13.10
2018-08-19T02:15:20.610Z,13.57
2018-08-19T02:17:53.849Z,13.67
2018-08-19T02:20:25.691Z,13.03
2018-08-19T02:23:03.202Z,13.60
2018-08-19T02:25:33.910Z,13.47
2018-08-19T02:28:03.214Z,13.40
2018-08-19T02:30:31.850Z,12.30
2018-08-19T02:33:01.149Z,13.57
2018-08-19T02:35:30.871Z,13.57
2018-08-19T02:37:59.463Z,13.23
2018-08-19T02:40:33.033Z,14.00
2018-08-19T02:43:01.814Z,13.60
2018-08-19T02:45:30.441Z,13.87
2018-08-19T02:47:59.054Z,13.40
2018-08-19T02:50:27.656Z,12.83
2018-08-19T02:52:56.337Z,13.50
2018-08-19T02:55:25.991Z,13.63
2018-08-19T02:57:59.694Z,13.50
2018-08-19T03:00:28.486Z,13.50
2018-08-19T03:02:57.109Z,13.80
2018-08-19T03:05:26.641Z,15.10
2018-08-19T03:07:56.287Z,14.87
2018-08-19T03:10:24.886Z,14.90
2018-08-19T03:12:54.977Z,13.83
2018-08-19T03:15:23.573Z,13.40
2018-08-19T03:17:53.078Z,13.87
2018-08-19T03:20:21.980Z,14.43
2018-08-19T03:22:50.611Z,15.30
2018-08-19T03:25:19.174Z,14.93
2018-08-19T03:27:47.810Z,15.80
2018-08-19T03:30:18.253Z,14.80
2018-08-19T03:32:52.147Z,14.80
2018-08-19T03:35:21.764Z,15.67
2018-08-19T03:37:53.260Z,16.80
2018-08-19T03:40:24.909Z,16.60
2018-08-19T03:42:53.706Z,16.70
2018-08-19T03:45:23.169Z,16.03
2018-08-19T03:47:53.504Z,16.57
2018-08-19T03:50:23.534Z,15.17
2018-08-19T03:52:53.118Z,17.03
2018-08-19T03:55:27.766Z,15.90
2018-08-19T03:58:01.289Z,16.73
2018-08-19T04:00:40.331Z,14.23
2018-08-19T04:03:17.034Z,13.90
2018-08-19T04:08:43.614Z,12.63
2018-08-19T04:11:12.944Z,13.60
2018-08-19T04:13:42.054Z,13.00
2018-08-19T04:16:12.121Z,13.47
2018-08-19T04:18:43.503Z,13.07
2018-08-19T04:21:14.518Z,13.70
2018-08-19T04:23:44.808Z,14.60
2018-08-19T04:26:13.648Z,14.27
2018-08-19T04:28:43.315Z,14.17
2018-08-19T04:31:18.002Z,14.10
2018-08-19T04:33:47.664Z,14.60
2018-08-19T04:36:18.357Z,13.30
2018-08-19T04:38:46.900Z,14.50
2018-08-19T04:41:16.081Z,14.27
2018-08-19T04:43:45.150Z,14.53
2018-08-19T04:46:13.746Z,14.17
2018-08-19T04:48:46.155Z,14.53
2018-08-19T04:51:15.906Z,14.87
2018-08-19T04:56:37.414Z,14.20
2018-08-19T04:59:09.995Z,14.33
2018-08-19T05:01:38.814Z,14.03
2018-08-19T05:04:08.072Z,14.57
2018-08-19T05:06:36.678Z,15.20
2018-08-19T05:09:08.186Z,15.07
2018-08-19T05:11:36.835Z,13.90
2018-08-19T05:14:05.439Z,13.23
2018-08-19T05:16:33.982Z,13.60
2018-08-19T05:19:05.162Z,12.80
2018-08-19T05:21:33.857Z,12.83
2018-08-19T05:24:02.724Z,13.33
2018-08-19T05:26:31.896Z,13.53
2018-08-19T05:29:09.016Z,14.93
2018-08-19T05:31:50.312Z,14.20
2018-08-19T05:34:25.597Z,14.00
2018-08-19T05:36:54.236Z,15.30
2018-08-19T05:39:23.402Z,14.70
2018-08-19T05:42:15.341Z,15.83
2018-08-19T05:44:44.793Z,15.93
2018-08-19T05:47:17.214Z,16.07
2018-08-19T05:49:46.822Z,16.40
2018-08-19T05:52:18.851Z,16.13
2018-08-19T05:54:52.828Z,14.90
2018-08-19T05:57:21.442Z,14.30
2018-08-19T05:59:51.235Z,14.50
2018-08-19T06:02:54.797Z,13.67
2018-08-19T06:05:23.389Z,13.20
2018-08-19T06:08:01.891Z,14.03
2018-08-19T06:10:30.723Z,14.40
2018-08-19T06:13:00.306Z,14.47
2018-08-19T06:15:29.030Z,14.57
2018-08-19T06:17:58.444Z,14.97
2018-08-19T06:20:29.015Z,14.70
2018-08-19T06:22:57.663Z,14.83
2018-08-19T06:25:26.326Z,13.50
2018-08-19T06:27:55.636Z,12.90
2018-08-19T06:30:24.298Z,13.17
2018-08-19T06:32:53.598Z,14.50
2018-08-19T06:35:22.193Z,13.37
2018-08-19T06:37:50.911Z,13.20
2018-08-19T06:40:21.433Z,13.50
2018-08-19T06:42:50.621Z,13.97
2018-08-19T06:45:19.212Z,12.70
2018-08-19T06:47:47.918Z,13.83
2018-08-19T06:50:26.108Z,13.40
2018-08-19T06:52:55.429Z,14.00
2018-08-19T06:55:24.123Z,14.07
2018-08-19T06:57:53.133Z,14.37
2018-08-19T07:00:28.898Z,15.13
2018-08-19T07:03:00.191Z,15.00
2018-08-19T07:05:29.017Z,13.03
2018-08-19T07:07:57.650Z,13.00
2018-08-19T07:10:32.194Z,12.47
2018-08-19T07:13:05.918Z,13.83
2018-08-19T07:15:35.239Z,13.57
2018-08-19T07:18:04.142Z,12.90
2018-08-19T07:20:33.537Z,11.90
2018-08-19T07:23:02.102Z,11.03
2018-08-19T07:25:30.703Z,10.43
2018-08-19T07:27:59.370Z,10.30
2018-08-19T07:30:28.135Z,9.80
2018-08-19T07:32:56.962Z,10.45
2018-08-19T07:35:25.527Z,9.25
2018-08-19T07:37:54.338Z,9.30
2018-08-19T07:40:22.884Z,9.33
2018-08-19T07:42:51.439Z,9.48
2018-08-19T07:45:20.000Z,10.63
2018-08-19T07:47:48.844Z,9.90
2018-08-19T07:50:17.875Z,9.73
2018-08-19T07:52:46.801Z,9.50
2018-08-19T07:55:15.538Z,11.10
2018-08-19T07:57:44.334Z,9.88
2018-08-19T08:00:13.431Z,7.50
2018-08-19T08:02:42.078Z,8.28
2018-08-19T08:05:11.398Z,9.63
2018-08-19T08:07:44.340Z,8.13
2018-08-19T08:10:12.959Z,7.97
2018-08-19T08:12:42.023Z,7.53
2018-08-19T08:15:10.794Z,7.37
2018-08-19T08:17:41.075Z,8.00
2018-08-19T08:20:09.759Z,8.18
2018-08-19T08:22:39.115Z,8.78
2018-08-19T08:25:10.938Z,7.42
2018-08-19T08:27:39.493Z,7.53
2018-08-19T08:30:11.762Z,7.83
2018-08-19T08:32:41.293Z,7.28
2018-08-19T08:35:10.328Z,6.05
2018-08-19T08:37:41.746Z,6.72
2018-08-19T08:40:11.770Z,6.80
2018-08-19T08:42:43.385Z,6.72
2018-08-19T08:45:13.199Z,7.42
2018-08-19T08:47:42.242Z,6.78
2018-08-19T08:50:11.950Z,6.10
2018-08-19T08:52:43.321Z,6.30
2018-08-19T08:55:12.816Z,6.50
2018-08-19T08:57:41.372Z,6.40
2018-08-19T09:00:13.614Z,5.83
2018-08-19T09:02:43.143Z,6.65
2018-08-19T09:05:12.510Z,5.55
2018-08-19T09:07:41.723Z,5.58
2018-08-19T09:10:12.827Z,5.47
2018-08-19T09:12:50.965Z,5.42
2018-08-19T09:15:20.228Z,4.90
2018-08-19T09:17:49.888Z,5.62
2018-08-19T09:20:27.321Z,4.80
2018-08-19T09:22:55.915Z,5.33
2018-08-19T09:25:24.467Z,5.20
2018-08-19T09:27:53.789Z,5.70
2018-08-19T09:30:30.746Z,5.20
2018-08-19T09:33:01.673Z,5.22
2018-08-19T09:35:33.504Z,6.60
2018-08-19T09:38:20.875Z,5.50
2018-08-19T09:40:50.172Z,4.78
2018-08-19T09:43:18.903Z,5.37
2018-08-19T09:45:47.842Z,5.00
2018-08-19T09:48:16.798Z,6.50
2018-08-19T09:50:45.634Z,5.25
2018-08-19T09:53:14.373Z,4.90
2018-08-19T09:55:47.402Z,5.85
2018-08-19T09:58:18.144Z,5.05
2018-08-19T10:00:51.990Z,5.17
2018-08-19T10:03:20.514Z,4.85
2018-08-19T10:05:49.113Z,5.22
2018-08-19T10:08:18.533Z,5.05
2018-08-19T10:10:47.538Z,4.58
2018-08-19T10:13:16.326Z,4.05
2018-08-19T10:15:44.896Z,4.60
2018-08-19T10:18:13.424Z,4.62
2018-08-19T10:20:41.966Z,4.22
2018-08-19T10:23:10.467Z,4.30
2018-08-19T10:25:39.053Z,3.95
2018-08-19T10:28:07.863Z,4.53
2018-08-19T10:30:39.759Z,5.03
2018-08-19T10:33:10.774Z,4.40
2018-08-19T10:35:39.405Z,3.75
2018-08-19T10:38:07.935Z,4.15
2018-08-19T10:40:36.609Z,3.98
2018-08-19T10:43:07.468Z,3.40
2018-08-19T10:45:38.254Z,3.47
2018-08-19T10:48:10.021Z,4.47
2018-08-19T10:50:38.569Z,3.80
2018-08-19T10:53:15.468Z,3.90
2018-08-19T10:55:44.934Z,4.10
2018-08-19T10:58:13.434Z,3.75
2018-08-19T11:00:42.053Z,4.10
2018-08-19T11:03:16.732Z,3.50
2018-08-19T11:05:46.150Z,3.60
2018-08-19T11:08:14.667Z,3.47
2018-08-19T11:10:43.207Z,3.85
2018-08-19T11:13:11.706Z,3.20
2018-08-19T11:15:45.315Z,3.55
2018-08-19T11:18:42.982Z,3.62
2018-08-19T11:21:25.727Z,3.42
2018-08-19T11:23:54.674Z,3.10
2018-08-19T11:26:23.279Z,3.27
2018-08-19T11:28:54.123Z,3.08
2018-08-19T11:31:28.027Z,3.25
2018-08-19T11:33:58.650Z,3.05
2018-08-19T11:36:44.732Z,2.95
2018-08-19T11:39:14.741Z,3.10
2018-08-19T11:41:43.269Z,3.00
2018-08-19T11:44:14.049Z,3.92
2018-08-19T11:46:42.601Z,3.80
2018-08-19T11:49:14.386Z,3.40
2018-08-19T11:51:47.002Z,3.50
2018-08-19T11:54:16.701Z,3.35
2018-08-19T11:56:59.195Z,4.72
2018-08-19T11:59:33.120Z,3.50
2018-08-19T12:02:01.866Z,3.50
2018-08-19T12:04:30.378Z,3.75
2018-08-19T12:06:58.882Z,3.65
2018-08-19T12:09:27.436Z,3.40
2018-08-19T12:11:55.957Z,3.90
2018-08-19T12:14:24.449Z,3.98
2018-08-19T12:16:55.306Z,3.55
2018-08-19T12:19:25.763Z,3.40
2018-08-19T12:22:00.299Z,3.83
2018-08-19T12:24:31.809Z,3.70
2018-08-19T12:27:02.353Z,3.50
2018-08-19T12:29:35.041Z,4.33
2018-08-19T12:32:19.562Z,4.12
2018-08-19T12:34:51.132Z,3.33
2018-08-19T12:37:20.779Z,3.33
2018-08-19T12:39:49.623Z,3.30
2018-08-19T12:42:18.219Z,3.45
2018-08-19T12:44:52.318Z,3.52
2018-08-19T12:47:23.294Z,3.67
2018-08-19T12:50:00.659Z,3.85
2018-08-19T12:52:32.239Z,3.98
2018-08-19T12:55:19.164Z,3.70
2018-08-19T12:57:52.286Z,3.77
2018-08-19T13:00:28.080Z,3.10
2018-08-19T13:02:56.687Z,3.27
2018-08-19T13:05:25.230Z,3.10
2018-08-19T13:07:53.834Z,3.05
2018-08-19T13:10:22.851Z,3.02
2018-08-19T13:12:56.717Z,3.52
2018-08-19T13:15:27.162Z,3.35
2018-08-19T13:17:55.866Z,3.08
2018-08-19T13:20:24.478Z,3.33
2018-08-19T13:23:00.306Z,3.30
2018-08-19T13:25:29.033Z,4.37
2018-08-19T13:27:57.757Z,3.25
2018-08-19T13:30:26.417Z,3.30
2018-08-19T13:32:54.910Z,3.52
2018-08-19T13:35:23.475Z,3.58
2018-08-19T13:37:54.306Z,3.58
2018-08-19T13:40:22.844Z,3.40
2018-08-19T13:42:51.391Z,3.70
2018-08-19T13:45:21.273Z,3.27
2018-08-19T13:47:51.388Z,3.30
2018-08-19T13:50:19.945Z,3.50
2018-08-19T13:52:48.429Z,3.30
2018-08-19T13:55:18.673Z,3.70
2018-08-19T13:57:47.161Z,4.20
2018-08-19T14:00:20.349Z,3.80
2018-08-19T14:02:49.426Z,3.50
2018-08-19T14:05:17.929Z,3.72
2018-08-19T14:07:46.418Z,3.90
2018-08-19T14:10:15.874Z,3.15
2018-08-19T14:12:44.504Z,3.17
2018-08-19T14:15:13.075Z,4.20
2018-08-19T14:17:41.695Z,3.60
2018-08-19T14:20:15.410Z,3.70
2018-08-19T14:22:43.924Z,3.25
2018-08-19T14:25:12.895Z,3.47
2018-08-19T14:27:41.713Z,3.70
2018-08-19T14:30:11.807Z,3.75
2018-08-19T14:32:41.297Z,3.75
2018-08-19T14:35:09.906Z,3.37
2018-08-19T14:37:38.431Z,3.40
2018-08-19T14:40:10.561Z,3.35
2018-08-19T14:42:39.101Z,3.33
2018-08-19T14:45:07.769Z,3.67
2018-08-19T14:47:36.319Z,3.70
2018-08-19T14:50:08.949Z,3.87
2018-08-19T14:52:37.437Z,3.70
2018-08-19T14:55:06.462Z,3.98
2018-08-19T14:57:34.982Z,3.40
2018-08-19T15:00:03.807Z,3.90
2018-08-19T15:02:35.510Z,3.50
2018-08-19T15:05:04.256Z,3.80
2018-08-19T15:07:32.742Z,3.65
2018-08-19T15:10:01.336Z,3.30
2018-08-19T15:12:29.802Z,3.75
2018-08-19T15:15:00.937Z,3.65
2018-08-19T15:17:29.440Z,3.75
2018-08-19T15:19:57.986Z,3.58
2018-08-19T15:22:26.432Z,3.70
2018-08-19T15:24:54.917Z,3.45
2018-08-19T15:27:23.374Z,3.50
2018-08-19T15:29:53.057Z,4.00
2018-08-19T15:32:22.948Z,3.58
2018-08-19T15:34:51.266Z,3.77
2018-08-19T15:37:19.758Z,3.62
2018-08-19T15:39:48.292Z,4.00
2018-08-19T15:42:17.026Z,3.87
2018-08-19T15:44:45.651Z,3.60
2018-08-19T15:47:14.287Z,3.47
2018-08-19T15:49:42.773Z,3.80
2018-08-19T15:52:11.278Z,3.72
2018-08-19T15:54:42.669Z,4.67
2018-08-19T15:57:11.176Z,3.65
2018-08-19T15:59:39.646Z,4.25
2018-08-19T16:02:08.182Z,3.62
2018-08-19T16:04:36.655Z,3.70
2018-08-19T16:07:05.264Z,3.80
2018-08-19T16:09:33.754Z,3.85
2018-08-19T16:12:02.291Z,3.90
2018-08-19T16:14:32.834Z,3.90
2018-08-19T16:17:02.565Z,3.70
2018-08-19T16:19:31.256Z,3.92
2018-08-19T16:22:00.349Z,3.62
2018-08-19T16:24:29.115Z,3.50
2018-08-19T16:26:57.716Z,3.72
2018-08-19T16:29:26.721Z,4.00
2018-08-19T16:31:55.267Z,3.52
2018-08-19T16:34:28.695Z,3.80
2018-08-19T16:36:57.304Z,3.45
2018-08-19T16:39:25.890Z,3.50
2018-08-19T16:41:54.387Z,3.90
2018-08-19T16:44:23.212Z,3.22
2018-08-19T16:46:51.695Z,3.80
2018-08-19T16:49:20.130Z,3.37
2018-08-19T16:51:48.655Z,3.60
2018-08-19T16:54:17.116Z,3.70
2018-08-19T16:56:45.639Z,3.70
2018-08-19T16:59:14.093Z,3.67
2018-08-19T17:01:42.566Z,4.30
2018-08-19T17:04:11.050Z,3.75
2018-08-19T17:06:39.564Z,3.87
2018-08-19T17:09:09.277Z,4.65
2018-08-19T17:11:37.784Z,4.05
2018-08-19T17:14:07.137Z,4.15
2018-08-19T17:16:35.680Z,3.60
2018-08-19T17:19:04.179Z,3.90
2018-08-19T17:21:32.676Z,3.50
2018-08-19T17:24:01.143Z,3.45
2018-08-19T17:26:29.649Z,3.60
2018-08-19T17:29:04.346Z,3.67
2018-08-19T17:31:33.102Z,5.10
2018-08-19T17:34:01.622Z,4.05
2018-08-19T17:36:34.819Z,4.30
2018-08-19T17:39:03.396Z,3.40
2018-08-19T17:41:31.867Z,3.52
2018-08-19T17:44:02.475Z,4.25
2018-08-19T17:46:30.941Z,4.22
2018-08-19T17:48:59.560Z,5.28
2018-08-19T17:51:33.658Z,4.08
2018-08-19T17:54:02.463Z,3.83
2018-08-19T17:56:30.938Z,4.05
2018-08-19T17:58:59.483Z,5.08
2018-08-19T18:01:28.658Z,4.40
2018-08-19T18:03:57.737Z,5.15
2018-08-19T18:06:27.431Z,3.85
2018-08-19T18:08:56.383Z,4.20
2018-08-19T18:11:24.903Z,4.12
2018-08-19T18:13:53.479Z,4.17
2018-08-19T18:16:22.056Z,4.30
2018-08-19T18:18:50.667Z,5.08
2018-08-19T18:21:19.197Z,4.60
2018-08-19T18:23:49.106Z,5.97
2018-08-19T18:26:18.020Z,5.10
2018-08-19T18:28:48.414Z,5.30
2018-08-19T18:31:21.456Z,6.15
2018-08-19T18:34:00.044Z,5.17
2018-08-19T18:36:31.377Z,6.42
2018-08-19T18:39:00.378Z,5.30
2018-08-19T18:41:33.307Z,5.15
2018-08-19T18:44:03.026Z,5.42
2018-08-19T18:46:32.249Z,6.25
2018-08-19T18:49:12.375Z,5.05
2018-08-19T18:51:42.308Z,4.73
2018-08-19T18:54:19.014Z,4.90
2018-08-19T18:56:47.534Z,4.90
2018-08-19T18:59:17.702Z,5.40
2018-08-19T19:01:46.227Z,5.43
2018-08-19T19:04:15.206Z,5.50
2018-08-19T19:06:43.731Z,5.27
2018-08-19T19:09:12.530Z,5.60
2018-08-19T19:11:41.082Z,5.30
2018-08-19T19:14:16.816Z,5.73
2018-08-19T19:16:47.794Z,5.80
2018-08-19T19:19:16.481Z,6.30
2018-08-19T19:21:51.010Z,5.80
2018-08-19T19:24:24.886Z,7.00
2018-08-19T19:26:53.973Z,5.80
2018-08-19T19:29:26.556Z,6.27
2018-08-19T19:31:56.102Z,5.90
2018-08-19T19:34:30.951Z,6.03
2018-08-19T19:36:59.511Z,5.33
2018-08-19T19:39:28.006Z,5.60
2018-08-19T19:42:02.614Z,6.00
2018-08-19T19:44:34.710Z,5.47
2018-08-19T19:47:03.375Z,6.23
2018-08-19T19:49:32.046Z,5.93
2018-08-19T19:52:02.549Z,6.10
2018-08-19T19:54:32.230Z,6.03
2018-08-19T19:57:01.481Z,5.73
2018-08-19T19:59:31.533Z,5.53
2018-08-19T20:02:00.054Z,5.47
2018-08-19T20:04:28.700Z,6.00
2018-08-19T20:06:57.244Z,6.20
2018-08-19T20:09:25.793Z,6.83
2018-08-19T20:11:54.298Z,6.57
2018-08-19T20:14:22.817Z,6.40
2018-08-19T20:16:51.295Z,6.50
2018-08-19T20:19:19.820Z,7.47
2018-08-19T20:21:48.363Z,7.10
2018-08-19T20:24:17.191Z,7.70
2018-08-19T20:26:45.704Z,8.00
2018-08-19T20:29:14.168Z,7.10
2018-08-19T20:31:42.767Z,6.40
2018-08-19T20:34:11.316Z,7.47
2018-08-19T20:36:39.842Z,6.03
2018-08-19T20:39:08.447Z,8.80
2018-08-19T20:41:37.009Z,6.97
2018-08-19T20:44:07.924Z,6.37
2018-08-19T20:46:37.903Z,8.03
2018-08-19T20:49:06.458Z,7.93
2018-08-19T20:51:35.132Z,8.00
2018-08-19T20:54:03.686Z,7.73
2018-08-19T20:56:32.244Z,7.53
2018-08-19T20:59:01.042Z,9.57
2018-08-19T21:01:29.589Z,7.17
2018-08-19T21:03:58.207Z,7.70
2018-08-19T21:06:26.770Z,7.10
2018-08-19T21:08:55.360Z,7.67
2018-08-19T21:11:23.945Z,6.83
2018-08-19T21:13:52.466Z,8.67
2018-08-19T21:16:21.779Z,7.53
2018-08-19T21:18:50.335Z,8.60
2018-08-19T21:21:18.943Z,7.67
2018-08-19T21:23:47.454Z,7.70
2018-08-19T21:26:16.074Z,10.53
2018-08-19T21:28:48.836Z,7.23
2018-08-19T21:31:17.717Z,8.67
2018-08-19T21:33:46.290Z,7.70
2018-08-19T21:36:14.883Z,8.47
2018-08-19T21:38:43.463Z,8.97
2018-08-19T21:41:12.093Z,9.00
2018-08-19T21:43:40.671Z,8.43
2018-08-19T21:46:09.259Z,9.13
2018-08-19T21:48:39.282Z,8.73
2018-08-19T21:51:07.899Z,8.27
2018-08-19T21:53:37.052Z,8.90
2018-08-19T21:56:05.654Z,8.80
2018-08-19T21:58:34.349Z,8.60
2018-08-19T22:01:04.253Z,9.23
2018-08-19T22:03:38.221Z,8.83
2018-08-19T22:06:08.066Z,9.00
2018-08-19T22:08:36.551Z,8.63
2018-08-19T22:11:05.307Z,8.20
2018-08-19T22:13:33.890Z,7.93
2018-08-19T22:16:02.518Z,8.13
2018-08-19T22:18:31.859Z,8.83
2018-08-19T22:21:26.588Z,9.50
2018-08-19T22:23:56.446Z,7.67
2018-08-19T22:26:25.032Z,9.07
2018-08-19T22:29:09.163Z,9.07
2018-08-19T22:31:37.758Z,9.40
2018-08-19T22:34:06.293Z,10.23
2018-08-19T22:36:34.834Z,9.53
2018-08-19T22:39:03.595Z,8.50
2018-08-19T22:41:33.445Z,9.10
2018-08-19T22:44:01.980Z,8.40
2018-08-19T22:46:30.599Z,8.50
2018-08-19T22:48:59.458Z,7.83
2018-08-19T22:51:31.094Z,9.00
2018-08-19T22:53:59.670Z,9.87
2018-08-19T22:56:28.249Z,9.20
2018-08-19T22:58:56.778Z,9.27
2018-08-19T23:01:29.535Z,9.03
2018-08-19T23:04:02.415Z,9.10
2018-08-19T23:06:31.951Z,9.20
2018-08-19T23:09:00.721Z,8.90
2018-08-19T23:11:35.549Z,9.13
2018-08-19T23:14:15.929Z,9.07
2018-08-19T23:16:44.518Z,8.50
2018-08-19T23:19:13.537Z,8.23
2018-08-19T23:21:42.113Z,8.40
2018-08-19T23:24:10.677Z,8.80
2018-08-19T23:26:39.235Z,8.40
2018-08-19T23:29:07.785Z,8.40
2018-08-19T23:31:36.355Z,9.00
2018-08-19T23:34:04.969Z,8.50
2018-08-19T23:36:33.514Z,8.83
2018-08-19T23:39:02.056Z,9.07
2018-08-19T23:41:30.553Z,9.50
2018-08-19T23:43:59.112Z,9.93
2018-08-19T23:46:27.661Z,10.20
2018-08-19T23:48:56.246Z,9.63
2018-08-19T23:51:29.294Z,9.87
2018-08-19T23:53:58.257Z,10.07
2018-08-19T23:56:26.843Z,9.47
2018-08-19T23:58:55.562Z,9.33
